Terminal Aerodrome Forecast
Issued by NWS

Home | Current Version | Previous Version | Text Only | Print | Product List | Glossary On
Versions: 1 2 3 4 5 6 7 8 9 10 11 12 13 14 15 16 17 18 19 20 21
273
FTUS46 KLOX 271446 CCA
TAFPMD
TAF COR
KPMD 271446Z 2712/2812 VRB03KT P6SM SKC
     FM272300 24014KT P6SM SKC
     FM280300 24008KT P6SM SKC
     FM281000 20008KT P6SM SKC=

USA.gov is the U.S. government's official web portal to all federal, state and local government web resources and services.